Time;durP1;ratioP1;P1;durP2;ratioP2;P2;SDS_P1;SDS_P2;PMS_P1;PMS_P2;Temp;Humidity;BMP_temperature;BMP_pressure;BME280_temperature;BME280_humidity;BME280_pressure;Samples;Min_cycle;Max_cycle;Signal;HPM_P1;HPM_P2
2022/04/13 00:00:45;;;;;;;3.00;2.70;;;;;;;;;;2089771;28;20174;-55
2022/04/13 00:01:45;;;;;;;3.15;2.85;;;;;;;;;;2089386;28;20707;-56
2022/04/13 00:02:45;;;;;;;3.10;2.80;;;;;;;;;;2088885;28;20707;-53
2022/04/13 00:03:46;;;;;;;3.00;2.45;;;;;;;;;;2090008;28;20701;-54
2022/04/13 00:04:47;;;;;;;4.28;2.50;;;;;;;;;;2086123;28;20917;-56
2022/04/13 00:05:48;;;;;;;3.00;2.60;;;;;;;;;;2089952;28;20168;-56
2022/04/13 00:06:49;;;;;;;2.47;2.28;;;;;;;;;;2087802;28;20172;-57
2022/04/13 00:07:49;;;;;;;2.72;2.50;;;;;;;;;;2090587;28;20209;-54
2022/04/13 00:08:50;;;;;;;2.63;2.42;;;;;;;;;;2088710;28;20188;-54
2022/04/13 00:09:50;;;;;;;2.95;2.75;;;;;;;;;;2089248;28;20202;-56
2022/04/13 00:10:50;;;;;;;7.22;3.45;;;;;;;;;;2087397;28;20175;-55
2022/04/13 00:11:52;;;;;;;2.33;2.22;;;;;;;;;;2090477;28;20175;-55
2022/04/13 00:12:52;;;;;;;3.08;2.42;;;;;;;;;;2090459;28;20179;-54
2022/04/13 00:13:52;;;;;;;2.60;2.40;;;;;;;;;;2089735;28;20191;-54
2022/04/13 00:14:52;;;;;;;3.08;2.28;;;;;;;;;;2089791;28;20172;-56
2022/04/13 00:15:53;;;;;;;2.85;2.50;;;;;;;;;;2089390;28;20172;-54
2022/04/13 00:16:54;;;;;;;3.58;2.85;;;;;;;;;;2078269;28;20272;-55
2022/04/13 00:17:54;;;;;;;3.10;2.90;;;;;;;;;;2089567;28;20159;-55
2022/04/13 00:18:55;;;;;;;4.57;3.17;;;;;;;;;;2089454;28;20238;-57
2022/04/13 00:19:55;;;;;;;2.88;2.60;;;;;;;;;;2088871;28;20258;-55
2022/04/13 00:20:55;;;;;;;3.90;3.20;;;;;;;;;;2089990;28;20656;-53
2022/04/13 00:21:56;;;;;;;2.92;2.72;;;;;;;;;;2088650;28;20186;-54
2022/04/13 00:22:56;;;;;;;2.90;2.63;;;;;;;;;;2089984;28;20163;-53
2022/04/13 00:23:56;;;;;;;3.78;3.00;;;;;;;;;;2088887;28;20171;-54
2022/04/13 00:24:57;;;;;;;2.78;2.47;;;;;;;;;;2090349;28;20734;-55
2022/04/13 00:25:57;;;;;;;3.65;2.97;;;;;;;;;;2091274;28;20311;-56
2022/04/13 00:26:58;;;;;;;2.60;2.40;;;;;;;;;;2088245;28;20168;-57
2022/04/13 00:27:58;;;;;;;3.40;2.60;;;;;;;;;;2085719;28;20176;-59
2022/04/13 00:28:59;;;;;;;3.15;2.90;;;;;;;;;;2091842;28;20222;-57
2022/04/13 00:29:59;;;;;;;3.53;2.83;;;;;;;;;;2088810;28;20196;-57
2022/04/13 00:30:59;;;;;;;3.58;3.05;;;;;;;;;;2087434;28;20267;-58
2022/04/13 00:32:01;;;;;;;4.82;2.90;;;;;;;;;;2091017;28;20172;-53
2022/04/13 00:33:01;;;;;;;2.92;2.72;;;;;;;;;;2090311;28;20168;-54
2022/04/13 00:34:01;;;;;;;3.00;2.80;;;;;;;;;;2090325;28;20274;-54
2022/04/13 00:35:05;;;;;;;3.25;2.92;;;;;;;;;;2090212;28;20233;-53
2022/04/13 00:36:05;;;;;;;3.13;2.83;;;;;;;;;;2089364;28;20699;-55
2022/04/13 00:37:05;;;;;;;3.75;2.80;;;;;;;;;;2089541;28;20187;-56
2022/04/13 00:38:06;;;;;;;2.90;2.70;;;;;;;;;;2088632;28;20218;-53
2022/04/13 00:39:06;;;;;;;3.42;3.13;;;;;;;;;;2089885;28;20270;-52
2022/04/13 00:40:07;;;;;;;3.05;2.85;;;;;;;;;;2088413;28;20180;-58
2022/04/13 00:41:07;;;;;;;3.33;3.10;;;;;;;;;;2090800;28;20172;-53
2022/04/13 00:42:08;;;;;;;3.40;3.10;;;;;;;;;;2089233;28;20652;-55
2022/04/13 00:43:08;;;;;;;4.13;2.88;;;;;;;;;;2089861;28;20198;-55
2022/04/13 00:44:09;;;;;;;2.97;2.67;;;;;;;;;;2087303;28;20686;-56
2022/04/13 00:45:10;;;;;;;3.60;3.30;;;;;;;;;;2089967;28;20790;-54
2022/04/13 00:46:10;;;;;;;3.08;2.70;;;;;;;;;;2089123;28;20164;-56
2022/04/13 00:47:10;;;;;;;6.28;2.83;;;;;;;;;;2089860;28;20545;-56
2022/04/13 00:48:17;;;;;;;3.08;2.75;;;;;;;;;;2087166;28;20670;-53
2022/04/13 00:49:18;;;;;;;3.10;2.40;;;;;;;;;;2089200;28;20226;-54
2022/04/13 00:50:19;;;;;;;2.63;2.42;;;;;;;;;;2089902;28;20184;-54
2022/04/13 00:51:20;;;;;;;4.28;2.65;;;;;;;;;;2088979;28;20223;-56
2022/04/13 00:52:20;;;;;;;2.65;2.53;;;;;;;;;;2090837;28;20184;-56
2022/04/13 00:53:22;;;;;;;2.85;2.58;;;;;;;;;;2091597;28;20168;-54
2022/04/13 00:54:24;;;;;;;4.55;2.58;;;;;;;;;;2090384;28;20644;-55
2022/04/13 00:55:26;;;;;;;2.70;2.50;;;;;;;;;;2091186;28;20191;-55
2022/04/13 00:56:28;;;;;;;2.92;2.72;;;;;;;;;;2089352;28;20818;-52
2022/04/13 00:57:30;;;;;;;2.80;2.58;;;;;;;;;;2090486;28;20183;-56
2022/04/13 00:58:32;;;;;;;3.00;2.80;;;;;;;;;;2090021;28;20180;-56
2022/04/13 00:59:35;;;;;;;3.45;2.85;;;;;;;;;;2090138;28;20211;-56
2022/04/13 01:00:38;;;;;;;3.10;2.80;;;;;;;;;;2087345;28;20167;-61
2022/04/13 01:01:40;;;;;;;2.65;2.55;;;;;;;;;;2090950;28;20201;-56
2022/04/13 01:02:42;;;;;;;3.15;2.55;;;;;;;;;;2090934;28;20183;-55
2022/04/13 01:03:43;;;;;;;3.55;3.25;;;;;;;;;;2090561;28;20167;-58
2022/04/13 01:04:45;;;;;;;3.88;3.00;;;;;;;;;;2085882;28;20214;-56
2022/04/13 01:05:47;;;;;;;3.88;3.10;;;;;;;;;;2091423;28;20254;-58
2022/04/13 01:06:47;;;;;;;3.65;3.33;;;;;;;;;;2090862;28;20643;-56
2022/04/13 01:07:47;;;;;;;3.03;2.83;;;;;;;;;;2091822;28;20171;-57
2022/04/13 01:08:49;;;;;;;4.13;2.65;;;;;;;;;;2089792;28;20200;-55
2022/04/13 01:09:50;;;;;;;3.08;2.85;;;;;;;;;;2090694;28;20247;-57
2022/04/13 01:10:50;;;;;;;2.88;2.67;;;;;;;;;;2090642;28;20202;-58
2022/04/13 01:11:51;;;;;;;4.50;3.30;;;;;;;;;;2088277;28;20221;-57
2022/04/13 01:12:51;;;;;;;3.15;2.85;;;;;;;;;;2091243;28;20168;-57
2022/04/13 01:13:54;;;;;;;3.55;2.90;;;;;;;;;;2089757;28;20172;-50
2022/04/13 01:14:54;;;;;;;3.17;2.63;;;;;;;;;;2089432;28;20674;-56
2022/04/13 01:15:55;;;;;;;3.53;2.90;;;;;;;;;;2090884;28;20180;-54
2022/04/13 01:16:55;;;;;;;4.05;2.75;;;;;;;;;;2090128;28;20194;-56
2022/04/13 01:17:55;;;;;;;2.88;2.67;;;;;;;;;;2090001;28;20198;-57
2022/04/13 01:18:56;;;;;;;3.10;2.70;;;;;;;;;;2085871;28;20244;-56
2022/04/13 01:19:57;;;;;;;2.80;2.60;;;;;;;;;;2089503;28;20184;-55
2022/04/13 01:20:58;;;;;;;3.35;2.83;;;;;;;;;;2085652;28;20301;-57
2022/04/13 01:22:03;;;;;;;2.95;2.72;;;;;;;;;;2089299;28;20775;-55
2022/04/13 01:23:03;;;;;;;3.15;2.40;;;;;;;;;;2090060;28;20252;-56
2022/04/13 01:24:03;;;;;;;3.83;2.70;;;;;;;;;;2087216;28;20214;-57
2022/04/13 01:25:04;;;;;;;4.95;2.35;;;;;;;;;;2089976;28;20259;-57
2022/04/13 01:26:04;;;;;;;2.88;2.65;;;;;;;;;;2089486;28;20663;-56
2022/04/13 01:27:04;;;;;;;3.25;3.05;;;;;;;;;;2088449;28;20742;-58
2022/04/13 01:28:05;;;;;;;3.20;2.63;;;;;;;;;;2086608;28;20247;-56
2022/04/13 01:29:05;;;;;;;3.20;3.00;;;;;;;;;;2087145;28;20207;-57
2022/04/13 01:30:06;;;;;;;5.68;3.60;;;;;;;;;;2089632;28;20211;-57
2022/04/13 01:31:07;;;;;;;3.15;2.92;;;;;;;;;;2090265;28;20213;-56
2022/04/13 01:32:08;;;;;;;3.53;3.30;;;;;;;;;;2089683;28;20713;-56
2022/04/13 01:33:08;;;;;;;3.22;3.03;;;;;;;;;;2090736;28;20170;-53
2022/04/13 01:34:08;;;;;;;2.88;2.67;;;;;;;;;;2088904;28;20674;-56
2022/04/13 01:35:08;;;;;;;3.10;2.90;;;;;;;;;;2090537;28;20267;-57
2022/04/13 01:36:09;;;;;;;4.43;3.10;;;;;;;;;;2089984;28;20184;-55
2022/04/13 01:37:10;;;;;;;3.50;3.20;;;;;;;;;;2087389;28;20275;-56
2022/04/13 01:38:10;;;;;;;3.13;2.78;;;;;;;;;;2087983;28;20172;-54
2022/04/13 01:39:10;;;;;;;3.55;3.10;;;;;;;;;;2090147;28;20601;-57
2022/04/13 01:40:11;;;;;;;3.40;3.10;;;;;;;;;;2089127;28;20174;-56
2022/04/13 01:41:11;;;;;;;3.90;2.80;;;;;;;;;;2089858;28;20179;-57
2022/04/13 01:42:11;;;;;;;3.03;2.65;;;;;;;;;;2087675;28;20175;-58
2022/04/13 01:43:12;;;;;;;3.45;3.00;;;;;;;;;;2091199;28;20674;-56
2022/04/13 01:44:15;;;;;;;3.58;3.35;;;;;;;;;;2087617;28;20218;-60
2022/04/13 01:45:21;;;;;;;3.10;2.78;;;;;;;;;;2089292;28;20687;-56
2022/04/13 01:46:22;;;;;;;4.45;3.20;;;;;;;;;;2082477;28;20176;-56
2022/04/13 01:47:22;;;;;;;6.13;2.60;;;;;;;;;;2081528;28;20180;-56
2022/04/13 01:48:22;;;;;;;5.13;2.88;;;;;;;;;;2090080;28;20180;-57
2022/04/13 01:49:23;;;;;;;3.20;2.97;;;;;;;;;;2089342;28;20286;-62
2022/04/13 01:50:23;;;;;;;3.42;3.13;;;;;;;;;;2089523;28;20163;-59
2022/04/13 01:51:24;;;;;;;3.50;3.20;;;;;;;;;;2088948;28;20171;-56
2022/04/13 01:52:24;;;;;;;3.63;3.00;;;;;;;;;;2090097;28;20233;-56
2022/04/13 01:53:25;;;;;;;3.17;2.90;;;;;;;;;;2088786;28;20201;-57
2022/04/13 01:54:25;;;;;;;3.55;3.25;;;;;;;;;;2088623;28;20163;-57
2022/04/13 01:55:25;;;;;;;3.70;3.40;;;;;;;;;;2089090;28;20180;-57
2022/04/13 01:56:25;;;;;;;3.30;3.10;;;;;;;;;;2089079;28;20195;-52
2022/04/13 01:57:26;;;;;;;5.50;3.47;;;;;;;;;;2079806;28;20172;-54
2022/04/13 01:58:26;;;;;;;4.82;3.60;;;;;;;;;;2087383;28;20187;-54
2022/04/13 01:59:26;;;;;;;4.18;2.80;;;;;;;;;;2088096;28;20180;-55
2022/04/13 02:00:27;;;;;;;4.22;3.30;;;;;;;;;;2089591;28;20207;-54
2022/04/13 02:01:27;;;;;;;3.28;2.90;;;;;;;;;;2084077;28;20640;-57
2022/04/13 02:02:28;;;;;;;3.95;2.95;;;;;;;;;;2087768;28;20245;-56
2022/04/13 02:03:28;;;;;;;4.55;2.90;;;;;;;;;;2087164;28;20226;-55
2022/04/13 02:04:28;;;;;;;3.58;3.00;;;;;;;;;;2088221;28;20285;-56
2022/04/13 02:05:29;;;;;;;3.42;3.13;;;;;;;;;;2088916;28;20263;-56
2022/04/13 02:06:29;;;;;;;3.83;3.53;;;;;;;;;;2080619;28;20165;-55
2022/04/13 02:07:30;;;;;;;4.32;3.75;;;;;;;;;;2087790;28;20189;-58
2022/04/13 02:08:30;;;;;;;3.70;3.10;;;;;;;;;;2085063;28;20263;-56
2022/04/13 02:09:30;;;;;;;3.65;3.35;;;;;;;;;;2089261;28;20176;-59
2022/04/13 02:10:31;;;;;;;3.05;2.78;;;;;;;;;;2089095;28;20267;-55
2022/04/13 02:11:31;;;;;;;3.47;3.28;;;;;;;;;;2089398;28;20171;-56
2022/04/13 02:12:32;;;;;;;3.53;3.20;;;;;;;;;;2089764;28;20214;-58
2022/04/13 02:13:32;;;;;;;3.70;3.40;;;;;;;;;;2089214;28;20171;-56
2022/04/13 02:14:32;;;;;;;4.60;2.92;;;;;;;;;;2089025;28;20181;-56
2022/04/13 02:15:33;;;;;;;3.80;3.05;;;;;;;;;;2088452;28;20196;-58
2022/04/13 02:16:34;;;;;;;3.53;3.20;;;;;;;;;;2081026;28;20176;-57
2022/04/13 02:17:34;;;;;;;3.70;3.40;;;;;;;;;;2088912;28;20779;-57
2022/04/13 02:18:34;;;;;;;4.45;3.03;;;;;;;;;;2089186;28;20211;-55
2022/04/13 02:19:34;;;;;;;4.18;3.50;;;;;;;;;;2089042;28;20668;-59
2022/04/13 02:20:35;;;;;;;4.82;3.10;;;;;;;;;;2088944;28;20194;-57
2022/04/13 02:21:35;;;;;;;3.20;3.00;;;;;;;;;;2088401;28;20278;-55
2022/04/13 02:22:35;;;;;;;4.32;2.80;;;;;;;;;;2089179;28;20229;-57
2022/04/13 02:23:35;;;;;;;4.13;3.08;;;;;;;;;;2086387;28;20167;-57
2022/04/13 02:24:37;;;;;;;3.35;3.05;;;;;;;;;;2088528;28;20199;-57
2022/04/13 02:25:37;;;;;;;3.08;2.88;;;;;;;;;;2089108;28;20706;-56
2022/04/13 02:26:38;;;;;;;4.18;2.97;;;;;;;;;;2080983;28;20275;-57
2022/04/13 02:27:38;;;;;;;5.55;3.33;;;;;;;;;;2081291;28;20176;-57
2022/04/13 02:28:38;;;;;;;3.55;3.25;;;;;;;;;;2088156;28;20163;-58
2022/04/13 02:29:39;;;;;;;3.33;3.13;;;;;;;;;;2088424;28;20250;-57
2022/04/13 02:30:40;;;;;;;3.60;3.30;;;;;;;;;;2088603;28;20656;-56
2022/04/13 02:31:40;;;;;;;3.72;3.35;;;;;;;;;;2088368;28;20163;-58
2022/04/13 02:32:43;;;;;;;3.30;3.10;;;;;;;;;;2088539;28;20942;-57
2022/04/13 02:33:43;;;;;;;3.25;2.95;;;;;;;;;;2087470;28;20195;-56
2022/04/13 02:34:45;;;;;;;3.25;2.95;;;;;;;;;;2088610;28;20207;-56
2022/04/13 02:35:45;;;;;;;3.85;3.55;;;;;;;;;;2089024;28;20168;-56
2022/04/13 02:36:45;;;;;;;3.05;2.85;;;;;;;;;;2088777;28;20175;-57
2022/04/13 02:37:45;;;;;;;3.28;3.08;;;;;;;;;;2087152;28;20241;-59
2022/04/13 02:38:46;;;;;;;3.40;3.08;;;;;;;;;;2087030;28;20209;-57
2022/04/13 02:39:46;;;;;;;3.58;3.17;;;;;;;;;;2089674;28;20160;-54
2022/04/13 02:40:46;;;;;;;4.22;3.83;;;;;;;;;;2089223;28;20633;-55
2022/04/13 02:41:46;;;;;;;4.85;3.30;;;;;;;;;;2089660;28;20170;-59
2022/04/13 02:42:47;;;;;;;4.85;4.07;;;;;;;;;;2089125;28;20191;-61
2022/04/13 02:43:47;;;;;;;4.53;4.13;;;;;;;;;;2088463;28;20205;-57
2022/04/13 02:44:47;;;;;;;7.60;6.85;;;;;;;;;;2088749;28;20175;-58
2022/04/13 02:45:48;;;;;;;6.40;5.03;;;;;;;;;;2088743;28;20179;-56
2022/04/13 02:46:48;;;;;;;4.88;4.38;;;;;;;;;;2090430;28;20229;-57
2022/04/13 02:47:48;;;;;;;4.97;3.80;;;;;;;;;;2096254;28;20167;-55
2022/04/13 02:48:48;;;;;;;5.70;3.65;;;;;;;;;;2087817;28;20187;-59
2022/04/13 02:49:49;;;;;;;4.32;3.92;;;;;;;;;;2080097;28;20219;-57
2022/04/13 02:50:49;;;;;;;4.40;3.90;;;;;;;;;;2089078;28;20242;-55
2022/04/13 02:51:49;;;;;;;4.25;3.85;;;;;;;;;;2091298;28;20193;-57
2022/04/13 02:52:49;;;;;;;4.43;4.00;;;;;;;;;;2090850;28;20228;-57
2022/04/13 02:53:50;;;;;;;4.30;3.95;;;;;;;;;;2092336;28;20254;-56
2022/04/13 02:54:50;;;;;;;4.28;3.78;;;;;;;;;;2091915;28;20180;-56
2022/04/13 02:55:51;;;;;;;5.40;4.00;;;;;;;;;;2089823;28;20160;-55
2022/04/13 02:56:51;;;;;;;4.28;3.88;;;;;;;;;;2082880;28;20586;-57
2022/04/13 02:57:51;;;;;;;4.00;3.70;;;;;;;;;;2084582;28;20212;-58
2022/04/13 02:58:52;;;;;;;4.25;3.85;;;;;;;;;;2091917;28;20215;-57
2022/04/13 02:59:52;;;;;;;4.03;3.63;;;;;;;;;;2091454;28;20259;-55
2022/04/13 03:00:54;;;;;;;4.72;3.97;;;;;;;;;;2091779;28;20378;-57
2022/04/13 03:01:54;;;;;;;4.65;4.25;;;;;;;;;;2091302;28;20176;-54
2022/04/13 03:02:55;;;;;;;4.78;4.18;;;;;;;;;;2090060;28;20424;-57
2022/04/13 03:03:55;;;;;;;4.47;4.10;;;;;;;;;;2090995;28;20189;-56
2022/04/13 03:04:56;;;;;;;4.82;4.32;;;;;;;;;;2089813;28;20202;-54
2022/04/13 03:05:56;;;;;;;4.22;3.92;;;;;;;;;;2091499;28;20175;-55
2022/04/13 03:06:56;;;;;;;5.70;3.70;;;;;;;;;;2091277;28;20175;-54
2022/04/13 03:07:57;;;;;;;4.43;4.03;;;;;;;;;;2091106;28;20189;-55
2022/04/13 03:08:58;;;;;;;5.10;4.70;;;;;;;;;;2091086;28;20209;-54
2022/04/13 03:09:59;;;;;;;5.72;5.22;;;;;;;;;;2091187;28;20164;-56
2022/04/13 03:10:59;;;;;;;5.63;4.60;;;;;;;;;;2091116;28;20175;-53
2022/04/13 03:11:59;;;;;;;5.25;4.53;;;;;;;;;;2091169;28;20175;-57
2022/04/13 03:12:59;;;;;;;4.95;4.45;;;;;;;;;;2091152;28;20211;-56
2022/04/13 03:14:00;;;;;;;4.55;4.25;;;;;;;;;;2087031;28;20175;-55
2022/04/13 03:15:03;;;;;;;5.15;4.75;;;;;;;;;;2091417;28;20225;-57
2022/04/13 03:16:03;;;;;;;5.80;4.45;;;;;;;;;;2087150;28;20179;-56
2022/04/13 03:17:04;;;;;;;5.35;4.80;;;;;;;;;;2090787;28;20254;-56
2022/04/13 03:18:05;;;;;;;4.15;3.85;;;;;;;;;;2086785;28;20187;-55
2022/04/13 03:19:05;;;;;;;5.35;4.25;;;;;;;;;;2090524;28;20199;-56
2022/04/13 03:20:06;;;;;;;4.38;3.97;;;;;;;;;;2091485;28;20172;-56
2022/04/13 03:21:06;;;;;;;4.80;4.40;;;;;;;;;;2089761;28;20542;-55
2022/04/13 03:22:06;;;;;;;5.35;4.07;;;;;;;;;;2084297;28;20561;-55
2022/04/13 03:23:07;;;;;;;5.15;4.68;;;;;;;;;;2090512;28;20519;-57
2022/04/13 03:24:07;;;;;;;4.55;4.20;;;;;;;;;;2090804;28;20171;-53
2022/04/13 03:25:08;;;;;;;5.90;5.28;;;;;;;;;;2091638;28;20203;-55
2022/04/13 03:26:08;;;;;;;13.57;11.10;;;;;;;;;;2090955;28;20171;-53
2022/04/13 03:27:08;;;;;;;22.30;17.35;;;;;;;;;;2091874;28;20615;-55
2022/04/13 03:28:09;;;;;;;12.18;9.23;;;;;;;;;;2087483;28;20180;-55
2022/04/13 03:29:09;;;;;;;7.82;7.03;;;;;;;;;;2091660;28;20345;-55
2022/04/13 03:30:13;;;;;;;16.65;11.88;;;;;;;;;;2091511;28;20171;-56
2022/04/13 03:31:13;;;;;;;17.27;12.88;;;;;;;;;;2091990;28;20549;-55
2022/04/13 03:32:13;;;;;;;18.42;13.20;;;;;;;;;;2091349;28;20172;-53
2022/04/13 03:33:13;;;;;;;14.68;10.20;;;;;;;;;;2090641;28;20194;-57
2022/04/13 03:34:14;;;;;;;11.25;8.77;;;;;;;;;;2090386;28;20160;-57
2022/04/13 03:35:15;;;;;;;13.10;7.78;;;;;;;;;;2082770;28;20175;-54
2022/04/13 03:36:17;;;;;;;7.07;6.15;;;;;;;;;;2089377;28;20687;-58
2022/04/13 03:37:18;;;;;;;5.28;4.70;;;;;;;;;;2088261;28;20176;-59
2022/04/13 03:38:18;;;;;;;5.45;4.15;;;;;;;;;;2090274;28;20555;-56
2022/04/13 03:39:18;;;;;;;6.22;4.40;;;;;;;;;;2091186;28;20222;-57
2022/04/13 03:40:18;;;;;;;4.57;4.22;;;;;;;;;;2085021;28;20180;-56
2022/04/13 03:41:18;;;;;;;4.60;3.92;;;;;;;;;;2088321;28;20180;-56
2022/04/13 03:42:19;;;;;;;4.43;4.13;;;;;;;;;;2090936;28;20184;-54
2022/04/13 03:43:19;;;;;;;4.47;4.10;;;;;;;;;;2091153;28;20271;-56
2022/04/13 03:44:20;;;;;;;4.80;4.40;;;;;;;;;;2092135;28;20181;-56
2022/04/13 03:45:20;;;;;;;5.07;4.57;;;;;;;;;;2090615;28;20200;-53
2022/04/13 03:46:20;;;;;;;4.63;4.15;;;;;;;;;;2089443;28;20203;-53
2022/04/13 03:47:21;;;;;;;4.65;4.25;;;;;;;;;;2091570;28;20170;-54
2022/04/13 03:48:21;;;;;;;6.05;4.45;;;;;;;;;;2093575;28;20524;-56
2022/04/13 03:49:21;;;;;;;4.80;4.40;;;;;;;;;;2092010;28;20667;-55
2022/04/13 03:50:21;;;;;;;4.95;4.47;;;;;;;;;;2093062;28;20249;-57
2022/04/13 03:51:22;;;;;;;4.97;3.65;;;;;;;;;;2092633;28;20168;-55
2022/04/13 03:52:22;;;;;;;5.68;5.10;;;;;;;;;;2093135;28;20282;-57
2022/04/13 03:53:22;;;;;;;4.53;4.18;;;;;;;;;;2093049;28;20251;-57
2022/04/13 03:54:22;;;;;;;4.75;4.40;;;;;;;;;;2092483;28;20168;-55
2022/04/13 03:55:23;;;;;;;6.45;4.85;;;;;;;;;;2091544;28;20211;-53
2022/04/13 03:56:23;;;;;;;4.45;4.15;;;;;;;;;;2091615;28;20665;-53
2022/04/13 03:57:23;;;;;;;4.57;4.25;;;;;;;;;;2091317;28;20216;-56
2022/04/13 03:58:24;;;;;;;5.00;4.40;;;;;;;;;;2090505;28;20193;-53
2022/04/13 03:59:25;;;;;;;5.88;4.32;;;;;;;;;;2090912;28;20377;-55
2022/04/13 04:00:26;;;;;;;4.50;4.20;;;;;;;;;;2089899;28;20206;-56
2022/04/13 04:01:26;;;;;;;5.40;4.68;;;;;;;;;;2089442;28;20213;-54
2022/04/13 04:02:27;;;;;;;4.90;4.47;;;;;;;;;;2089015;28;20184;-53
2022/04/13 04:03:27;;;;;;;5.00;4.45;;;;;;;;;;2087392;28;20226;-54
2022/04/13 04:04:27;;;;;;;5.10;4.65;;;;;;;;;;2089548;28;20179;-55
2022/04/13 04:05:28;;;;;;;4.70;4.30;;;;;;;;;;2084318;28;20326;-55
2022/04/13 04:06:28;;;;;;;6.18;4.22;;;;;;;;;;2087097;28;20251;-55
2022/04/13 04:07:29;;;;;;;5.07;4.68;;;;;;;;;;2089236;28;20183;-53
2022/04/13 04:08:29;;;;;;;4.07;3.78;;;;;;;;;;2089852;28;20179;-56
2022/04/13 04:09:30;;;;;;;5.95;4.20;;;;;;;;;;2090396;28;20207;-53
2022/04/13 04:10:30;;;;;;;8.55;4.13;;;;;;;;;;2085149;28;20176;-54
2022/04/13 04:11:30;;;;;;;9.30;4.80;;;;;;;;;;2090266;28;20167;-55
2022/04/13 04:12:38;;;;;;;7.43;5.00;;;;;;;;;;2090338;28;20172;-53
2022/04/13 04:13:38;;;;;;;5.07;4.55;;;;;;;;;;2082436;28;20195;-56
2022/04/13 04:14:39;;;;;;;7.90;5.28;;;;;;;;;;2085281;28;20259;-54
2022/04/13 04:15:39;;;;;;;5.43;4.82;;;;;;;;;;2091011;28;20171;-53
2022/04/13 04:16:39;;;;;;;5.82;4.80;;;;;;;;;;2085216;28;20195;-57
2022/04/13 04:17:39;;;;;;;7.38;5.45;;;;;;;;;;2089843;28;20266;-54
2022/04/13 04:18:39;;;;;;;7.18;5.15;;;;;;;;;;2090055;28;20172;-54
2022/04/13 04:19:40;;;;;;;6.72;5.25;;;;;;;;;;2090737;28;20176;-56
2022/04/13 04:20:40;;;;;;;6.47;5.40;;;;;;;;;;2089643;28;20202;-53
2022/04/13 04:21:40;;;;;;;5.10;4.70;;;;;;;;;;2090332;28;20254;-53
2022/04/13 04:22:41;;;;;;;5.75;5.22;;;;;;;;;;2084743;28;20667;-56
2022/04/13 04:23:41;;;;;;;5.60;5.13;;;;;;;;;;2090397;28;20731;-52
2022/04/13 04:24:41;;;;;;;6.47;5.55;;;;;;;;;;2088700;28;20186;-54
2022/04/13 04:25:42;;;;;;;5.97;5.20;;;;;;;;;;2089789;28;20237;-54
2022/04/13 04:26:43;;;;;;;5.82;5.32;;;;;;;;;;2087832;28;20257;-53
2022/04/13 04:27:43;;;;;;;6.32;5.72;;;;;;;;;;2089652;28;20249;-53
2022/04/13 04:29:53;;;;;;;5.80;5.30;;;;;;;;;;2076571;28;20642;-58
2022/04/13 04:30:53;;;;;;;8.38;5.28;;;;;;;;;;2081252;28;20181;-56
2022/04/13 04:31:54;;;;;;;7.13;5.65;;;;;;;;;;2068631;28;20192;-55
2022/04/13 04:32:54;;;;;;;6.50;5.50;;;;;;;;;;2064683;28;20181;-57
2022/04/13 04:33:54;;;;;;;6.57;5.60;;;;;;;;;;2071994;28;20186;-59
2022/04/13 04:34:54;;;;;;;9.23;6.55;;;;;;;;;;2074940;28;20268;-60
2022/04/13 04:35:55;;;;;;;7.95;6.03;;;;;;;;;;2081333;28;20176;-58
2022/04/13 04:36:55;;;;;;;6.20;5.60;;;;;;;;;;2079368;28;20196;-58
2022/04/13 04:37:55;;;;;;;6.07;5.03;;;;;;;;;;2076510;28;20195;-58
2022/04/13 04:38:55;;;;;;;6.07;5.47;;;;;;;;;;2081204;28;20263;-57
2022/04/13 04:39:56;;;;;;;7.53;5.95;;;;;;;;;;2083486;28;20210;-51
2022/04/13 04:40:56;;;;;;;6.40;5.80;;;;;;;;;;2070683;28;20184;-60
2022/04/13 04:41:56;;;;;;;5.80;5.25;;;;;;;;;;2078566;28;20203;-59
2022/04/13 04:42:58;;;;;;;6.00;5.40;;;;;;;;;;2083947;28;20184;-56
2022/04/13 04:43:58;;;;;;;5.97;5.47;;;;;;;;;;2082834;28;20183;-56
2022/04/13 04:44:59;;;;;;;6.05;5.45;;;;;;;;;;2079587;28;20172;-60
2022/04/13 04:45:59;;;;;;;6.32;5.70;;;;;;;;;;2068051;28;20193;-57
2022/04/13 04:46:59;;;;;;;6.20;5.60;;;;;;;;;;2084982;28;20202;-59
2022/04/13 04:48:04;;;;;;;6.70;6.10;;;;;;;;;;2074837;28;20181;-56
2022/04/13 04:49:05;;;;;;;7.30;6.53;;;;;;;;;;2068161;28;20181;-59
2022/04/13 04:50:06;;;;;;;6.40;5.85;;;;;;;;;;2067593;28;20177;-57
2022/04/13 04:51:06;;;;;;;6.75;6.15;;;;;;;;;;2068878;28;20208;-56
2022/04/13 04:52:06;;;;;;;5.78;5.18;;;;;;;;;;2076340;28;20253;-55
2022/04/13 04:53:07;;;;;;;6.10;5.60;;;;;;;;;;2081198;28;20581;-56
2022/04/13 04:54:07;;;;;;;9.02;6.03;;;;;;;;;;2080904;28;20259;-54
2022/04/13 04:55:11;;;;;;;6.78;6.05;;;;;;;;;;2081629;28;20255;-57
2022/04/13 04:56:11;;;;;;;8.52;5.90;;;;;;;;;;2073057;28;20176;-56
2022/04/13 04:57:11;;;;;;;6.47;5.97;;;;;;;;;;2073226;28;20169;-57
2022/04/13 04:58:12;;;;;;;8.38;6.13;;;;;;;;;;2081774;28;20664;-62
2022/04/13 04:59:12;;;;;;;7.10;5.82;;;;;;;;;;2081546;28;20234;-59
2022/04/13 05:00:19;;;;;;;6.90;6.13;;;;;;;;;;2082042;28;20184;-58
2022/04/13 05:01:19;;;;;;;6.30;5.68;;;;;;;;;;2081968;28;20188;-56
2022/04/13 05:02:20;;;;;;;7.57;6.20;;;;;;;;;;2081769;28;20168;-54
2022/04/13 05:03:20;;;;;;;7.28;5.85;;;;;;;;;;2079617;28;20367;-57
2022/04/13 05:04:20;;;;;;;6.57;5.97;;;;;;;;;;2079563;28;20254;-58
2022/04/13 05:05:21;;;;;;;6.65;6.15;;;;;;;;;;2071735;28;20205;-58
2022/04/13 05:06:23;;;;;;;7.25;6.55;;;;;;;;;;2064775;28;20252;-59
2022/04/13 05:07:23;;;;;;;9.38;6.53;;;;;;;;;;2071597;28;20177;-54
2022/04/13 05:08:23;;;;;;;5.85;5.35;;;;;;;;;;2081775;28;20185;-60
2022/04/13 05:09:25;;;;;;;8.65;6.70;;;;;;;;;;2081931;28;20188;-56
2022/04/13 05:10:25;;;;;;;7.82;6.50;;;;;;;;;;2081735;28;20160;-58
2022/04/13 05:11:26;;;;;;;8.38;6.03;;;;;;;;;;2072912;28;20195;-60
2022/04/13 05:12:26;;;;;;;6.93;6.22;;;;;;;;;;2072977;28;20227;-58
2022/04/13 05:13:27;;;;;;;7.15;6.47;;;;;;;;;;2081796;28;20172;-61
2022/04/13 05:14:29;;;;;;;7.05;6.35;;;;;;;;;;2081175;28;20751;-60
2022/04/13 05:15:29;;;;;;;7.88;7.07;;;;;;;;;;2081547;28;20172;-59
2022/04/13 05:16:29;;;;;;;6.63;5.95;;;;;;;;;;2081734;28;20706;-59
2022/04/13 05:17:29;;;;;;;8.23;6.22;;;;;;;;;;2081901;28;20540;-55
2022/04/13 05:18:30;;;;;;;6.85;6.20;;;;;;;;;;2081682;28;20176;-59
2022/04/13 05:19:30;;;;;;;6.82;6.22;;;;;;;;;;2081843;28;20192;-59
2022/04/13 05:20:31;;;;;;;8.55;6.70;;;;;;;;;;2071823;28;20169;-57
2022/04/13 05:21:31;;;;;;;7.72;6.18;;;;;;;;;;2072725;28;20587;-56
2022/04/13 05:22:32;;;;;;;6.97;6.15;;;;;;;;;;2081430;28;20176;-59
2022/04/13 05:23:32;;;;;;;6.28;5.78;;;;;;;;;;2081610;28;20239;-58
2022/04/13 05:24:32;;;;;;;6.95;6.05;;;;;;;;;;2081335;28;20180;-56
2022/04/13 05:25:33;;;;;;;7.20;6.50;;;;;;;;;;2081493;28;20235;-60
2022/04/13 05:26:33;;;;;;;6.80;6.10;;;;;;;;;;2072464;28;20247;-62
2022/04/13 05:27:33;;;;;;;8.88;6.25;;;;;;;;;;2073184;28;20173;-56
2022/04/13 05:28:33;;;;;;;5.78;5.25;;;;;;;;;;2077610;28;20564;-58
2022/04/13 05:29:34;;;;;;;6.57;5.40;;;;;;;;;;2081438;28;20203;-56
2022/04/13 05:30:34;;;;;;;7.95;5.40;;;;;;;;;;2081202;28;20208;-56
2022/04/13 05:31:34;;;;;;;6.32;5.53;;;;;;;;;;2072464;28;20173;-58
2022/04/13 05:32:48;;;;;;;7.03;5.50;;;;;;;;;;2067436;28;20243;-56
2022/04/13 05:33:49;;;;;;;6.72;6.10;;;;;;;;;;2071208;28;20288;-57
2022/04/13 05:34:49;;;;;;;9.77;8.25;;;;;;;;;;2074935;28;20188;-63
2022/04/13 05:35:49;;;;;;;9.63;7.88;;;;;;;;;;2079476;28;20200;-63
2022/04/13 05:36:50;;;;;;;7.75;7.03;;;;;;;;;;2077766;28;20247;-61
2022/04/13 05:37:50;;;;;;;8.48;7.47;;;;;;;;;;2067745;28;20177;-58
2022/04/13 05:38:50;;;;;;;8.35;7.55;;;;;;;;;;2069864;28;20656;-58
2022/04/13 05:39:50;;;;;;;6.95;6.40;;;;;;;;;;2078229;28;20250;-62
2022/04/13 05:40:50;;;;;;;7.68;6.97;;;;;;;;;;2080194;28;20207;-61
2022/04/13 05:41:51;;;;;;;7.32;6.63;;;;;;;;;;2073449;28;20169;-61
2022/04/13 05:42:53;;;;;;;9.95;6.63;;;;;;;;;;2078749;28;20180;-59
2022/04/13 05:43:53;;;;;;;8.05;6.45;;;;;;;;;;2076094;28;20230;-61
2022/04/13 05:44:53;;;;;;;6.70;6.05;;;;;;;;;;2079045;28;20318;-62
2022/04/13 05:45:53;;;;;;;7.60;6.90;;;;;;;;;;2068548;28;20158;-59
2022/04/13 05:46:54;;;;;;;7.30;6.60;;;;;;;;;;2062111;28;20205;-62
2022/04/13 05:47:54;;;;;;;8.88;6.43;;;;;;;;;;2069074;28;20212;-59
2022/04/13 05:48:55;;;;;;;7.32;6.70;;;;;;;;;;2081037;28;20681;-58
2022/04/13 05:49:55;;;;;;;10.18;6.03;;;;;;;;;;2076299;28;20198;-63
2022/04/13 05:50:55;;;;;;;7.30;6.60;;;;;;;;;;2081876;28;20177;-63
2022/04/13 05:51:56;;;;;;;6.50;5.90;;;;;;;;;;2070166;28;20182;-64
2022/04/13 05:52:56;;;;;;;6.18;5.68;;;;;;;;;;2070879;28;20170;-62
2022/04/13 05:53:56;;;;;;;7.28;6.57;;;;;;;;;;2077723;28;20196;-63
2022/04/13 05:54:56;;;;;;;6.28;5.78;;;;;;;;;;2071288;28;20173;-63
2022/04/13 05:55:57;;;;;;;6.07;5.57;;;;;;;;;;2070847;28;20185;-60
2022/04/13 05:56:57;;;;;;;6.90;6.20;;;;;;;;;;2083043;28;20253;-60
2022/04/13 05:57:57;;;;;;;6.57;5.85;;;;;;;;;;2078929;28;20247;-61
2022/04/13 05:58:57;;;;;;;7.53;6.57;;;;;;;;;;2078587;28;20181;-63
2022/04/13 05:59:58;;;;;;;8.43;6.47;;;;;;;;;;2078702;28;20189;-63
2022/04/13 06:00:58;;;;;;;6.07;5.57;;;;;;;;;;2079659;28;20168;-67
2022/04/13 06:01:58;;;;;;;6.43;5.88;;;;;;;;;;2076581;28;20176;-66
2022/04/13 06:02:58;;;;;;;7.07;5.95;;;;;;;;;;2078527;28;20180;-67
2022/04/13 06:03:59;;;;;;;6.40;5.80;;;;;;;;;;2069064;28;20201;-62
2022/04/13 06:04:59;;;;;;;8.18;6.57;;;;;;;;;;2069846;28;20193;-64